Time;durP1;ratioP1;P1;durP2;ratioP2;P2;SDS_P1;SDS_P2;PMS_P1;PMS_P2;Temp;Humidity;BMP_temperature;BMP_pressure;BME280_temperature;BME280_humidity;BME280_pressure;Samples;Min_cycle;Max_cycle;Signal;HPM_P1;HPM_P2
2023/03/30 00:02:21;;;;;;;39.37;25.10;;;9.00;1.00;;;;;;5051687;28;20457;-75
2023/03/30 00:04:50;;;;;;;34.60;25.57;;;8.90;1.00;;;;;;5053544;28;20454;-75
2023/03/30 00:07:17;;;;;;;37.53;27.07;;;9.00;1.00;;;;;;5053657;28;20491;-77
2023/03/30 00:09:43;;;;;;;36.23;25.07;;;8.90;1.00;;;;;;5053267;28;20397;-80
2023/03/30 00:12:09;;;;;;;38.43;25.57;;;8.90;1.00;;;;;;5052204;28;20432;-76
2023/03/30 00:14:36;;;;;;;36.10;24.30;;;8.90;1.00;;;;;;5053038;28;20255;-76
2023/03/30 00:17:03;;;;;;;34.73;25.60;;;8.90;8.00;;;;;;5053504;28;20376;-73
2023/03/30 00:19:29;;;;;;;33.47;24.20;;;9.00;14.80;;;;;;5053398;28;20449;-75
2023/03/30 00:21:56;;;;;;;37.47;24.87;;;9.00;16.30;;;;;;5051099;28;20819;-77
2023/03/30 00:24:22;;;;;;;34.87;24.60;;;9.00;20.20;;;;;;5042719;28;20768;-75
2023/03/30 00:26:47;;;;;;;33.33;24.27;;;9.00;25.30;;;;;;5032077;28;20411;-76
2023/03/30 00:29:13;;;;;;;36.27;23.60;;;9.00;32.10;;;;;;5033432;28;20178;-74
2023/03/30 00:31:39;;;;;;;38.27;25.17;;;8.90;31.90;;;;;;5031503;28;20230;-75
2023/03/30 00:34:05;;;;;;;34.87;24.50;;;8.90;31.90;;;;;;5033197;28;20217;-75
2023/03/30 00:36:36;;;;;;;34.57;25.87;;;8.90;31.90;;;;;;5033181;28;20412;-76
2023/03/30 00:39:05;;;;;;;35.43;25.03;;;8.90;32.00;;;;;;5040606;28;20527;-75
2023/03/30 00:41:32;;;;;;;34.07;23.80;;;8.90;40.90;;;;;;5052038;28;20432;-73
2023/03/30 00:44:01;;;;;;;34.10;23.60;;;8.90;49.90;;;;;;5040643;28;20400;-73
2023/03/30 00:46:29;;;;;;;34.67;22.57;;;8.90;55.50;;;;;;5032614;28;20459;-76
2023/03/30 00:48:57;;;;;;;38.37;24.87;;;8.90;60.40;;;;;;5032495;28;20440;-73
2023/03/30 00:51:24;;;;;;;34.47;23.70;;;8.90;64.10;;;;;;5031979;28;20426;-76
2023/03/30 00:53:53;;;;;;;33.77;23.60;;;8.90;70.60;;;;;;5033211;28;20427;-75
2023/03/30 00:56:25;;;;;;;36.73;26.20;;;8.90;80.10;;;;;;5031700;28;20416;-75
2023/03/30 00:58:51;;;;;;;36.27;24.30;;;8.90;80.40;;;;;;5052850;28;20385;-75
2023/03/30 01:01:24;;;;;;;39.10;26.57;;;8.90;80.40;;;;;;5051862;28;20524;-75
2023/03/30 01:03:51;;;;;;;34.03;24.53;;;8.90;80.50;;;;;;5052762;28;20750;-73
2023/03/30 01:06:23;;;;;;;35.70;23.90;;;8.80;86.80;;;;;;5052779;28;20402;-75
2023/03/30 01:08:50;;;;;;;36.57;23.80;;;8.90;91.10;;;;;;5052765;28;20407;-75
2023/03/30 01:11:15;;;;;;;36.00;25.20;;;8.90;93.20;;;;;;5050695;28;20432;-78
2023/03/30 01:13:46;;;;;;;36.37;24.10;;;8.80;96.20;;;;;;5051869;28;20432;-75
2023/03/30 01:16:30;;;;;;;35.37;23.13;;;8.90;97.90;;;;;;5052799;28;20248;-75
2023/03/30 01:19:11;;;;;;;32.07;23.33;;;8.80;99.90;;;;;;5052307;28;20462;-75
2023/03/30 01:22:03;;;;;;;35.50;24.03;;;8.80;99.90;;;;;;5051650;28;20463;-73
2023/03/30 01:24:53;;;;;;;32.17;21.93;;;8.80;99.90;;;;;;5052873;28;20420;-74
2023/03/30 01:27:29;;;;;;;29.20;21.00;;;8.80;99.90;;;;;;5032734;28;20404;-73
2023/03/30 01:30:14;;;;;;;33.97;24.33;;;8.80;99.90;;;;;;5032413;28;20459;-77
2023/03/30 01:33:21;;;;;;;33.57;22.20;;;8.80;99.90;;;;;;5032542;28;20478;-75
2023/03/30 01:35:50;;;;;;;27.93;21.50;;;8.90;99.90;;;;;;5031232;28;20932;-74
2023/03/30 01:38:43;;;;;;;32.63;22.47;;;8.90;99.90;;;;;;5032648;28;20436;-76
2023/03/30 01:41:18;;;;;;;30.83;23.27;;;8.90;99.90;;;;;;5046024;28;20508;-75
2023/03/30 01:44:10;;;;;;;31.80;20.80;;;8.90;99.90;;;;;;5052580;28;20748;-75
2023/03/30 01:46:41;;;;;;;32.03;22.80;;;8.90;99.90;;;;;;5050978;28;20403;-76
2023/03/30 01:49:27;;;;;;;35.43;22.10;;;8.90;99.90;;;;;;5051164;28;20412;-75
2023/03/30 01:52:00;;;;;;;29.00;21.40;;;8.90;99.90;;;;;;5051421;28;20484;-77
2023/03/30 01:54:33;;;;;;;30.40;21.03;;;8.90;99.90;;;;;;5038633;28;20469;-75
2023/03/30 01:57:15;;;;;;;31.83;22.07;;;8.90;99.90;;;;;;5031868;28;20874;-75
2023/03/30 01:59:53;;;;;;;28.87;21.17;;;9.00;99.90;;;;;;5032483;28;20401;-75
2023/03/30 02:02:21;;;;;;;27.90;19.63;;;9.00;99.90;;;;;;5034161;28;20449;-75
2023/03/30 02:04:52;;;;;;;34.90;23.27;;;9.00;99.90;;;;;;5035982;28;20470;-75
2023/03/30 02:07:21;;;;;;;29.10;21.53;;;9.00;99.90;;;;;;5034629;28;20431;-75
2023/03/30 02:09:50;;;;;;;29.00;20.73;;;9.00;99.90;;;;;;5035849;28;20379;-83
2023/03/30 02:12:18;;;;;;;31.63;21.00;;;9.00;99.90;;;;;;5034744;28;20487;-75
2023/03/30 02:14:47;;;;;;;27.83;20.00;;;9.00;99.90;;;;;;5048587;28;20464;-75
2023/03/30 02:17:21;;;;;;;31.17;20.73;;;9.00;99.90;;;;;;5055606;28;20379;-76
2023/03/30 02:19:48;;;;;;;32.30;21.60;;;8.90;99.90;;;;;;5054414;28;20385;-81
2023/03/30 02:22:16;;;;;;;28.17;20.60;;;9.00;99.90;;;;;;5038400;28;20494;-75
2023/03/30 02:24:45;;;;;;;30.13;21.33;;;9.00;99.90;;;;;;5035694;28;20399;-75
2023/03/30 02:27:11;;;;;;;27.07;19.93;;;9.00;99.90;;;;;;5035524;28;20799;-77
2023/03/30 02:29:40;;;;;;;29.20;20.43;;;9.00;99.90;;;;;;5035309;28;20383;-75
2023/03/30 02:32:21;;;;;;;33.07;20.80;;;9.00;99.90;;;;;;5034518;28;20398;-74
2023/03/30 02:35:21;;;;;;;26.33;18.60;;;9.00;99.90;;;;;;5035366;28;20901;-75
2023/03/30 02:38:24;;;;;;;30.50;20.33;;;8.90;99.90;;;;;;5033891;28;20478;-74
2023/03/30 02:41:14;;;;;;;28.77;20.70;;;8.90;99.90;;;;;;5034342;28;20454;-75
2023/03/30 02:43:58;;;;;;;28.17;19.43;;;8.90;99.90;;;;;;5035303;28;20431;-74
2023/03/30 02:46:51;;;;;;;26.13;19.57;;;8.90;99.90;;;;;;5035359;28;20369;-75
2023/03/30 02:49:45;;;;;;;27.17;19.47;;;8.90;99.90;;;;;;5038032;28;20394;-75
2023/03/30 02:52:54;;;;;;;28.63;18.43;;;8.90;99.90;;;;;;5054002;28;20445;-74
2023/03/30 02:55:40;;;;;;;25.53;19.83;;;9.00;99.90;;;;;;5053585;28;20952;-75
2023/03/30 02:58:06;;;;;;;28.30;19.33;;;8.90;99.90;;;;;;5054961;28;20499;-73
2023/03/30 03:00:43;;;;;;;31.23;19.40;;;8.90;99.90;;;;;;5054143;28;20883;-75
2023/03/30 03:03:32;;;;;;;27.70;19.50;;;8.90;99.90;;;;;;5053504;28;20202;-75
2023/03/30 03:06:01;;;;;;;26.40;18.93;;;9.00;99.90;;;;;;5033168;28;20410;-75
2023/03/30 03:08:34;;;;;;;25.60;19.50;;;9.00;99.90;;;;;;5034695;28;20734;-72
2023/03/30 03:11:00;;;;;;;28.07;19.57;;;9.00;99.90;;;;;;5033864;28;20397;-73
2023/03/30 03:13:26;;;;;;;28.43;20.27;;;9.00;99.90;;;;;;5037393;28;20844;-72
2023/03/30 03:15:55;;;;;;;25.17;16.83;;;9.00;99.90;;;;;;5054654;28;20485;-74
2023/03/30 03:18:22;;;;;;;25.70;18.43;;;9.00;99.90;;;;;;5054585;28;20903;-75
2023/03/30 03:20:49;;;;;;;27.37;18.07;;;9.00;99.90;;;;;;5052266;28;20395;-74
2023/03/30 03:23:16;;;;;;;25.63;19.47;;;9.00;99.90;;;;;;5053020;28;20446;-74
2023/03/30 03:25:41;;;;;;;22.33;17.40;;;8.90;99.90;;;;;;5054314;28;20412;-72
2023/03/30 03:28:07;;;;;;;29.67;18.83;;;9.00;99.90;;;;;;5047670;28;20445;-73
2023/03/30 03:30:33;;;;;;;32.20;18.00;;;9.00;99.90;;;;;;5036243;28;20182;-75
2023/03/30 03:33:00;;;;;;;23.70;17.57;;;9.00;99.90;;;;;;5034269;28;20791;-71
2023/03/30 03:35:26;;;;;;;25.40;17.27;;;8.90;99.90;;;;;;5016916;28;20182;-75
2023/03/30 03:37:51;;;;;;;25.60;18.57;;;8.90;99.90;;;;;;5034181;28;20418;-74
2023/03/30 03:40:17;;;;;;;25.53;17.60;;;9.00;99.90;;;;;;5032066;28;20917;-75
2023/03/30 03:42:43;;;;;;;27.47;17.03;;;9.00;99.90;;;;;;5031868;28;20218;-72
2023/03/30 03:45:09;;;;;;;29.00;17.20;;;9.00;99.90;;;;;;5035071;28;20215;-75
2023/03/30 03:47:35;;;;;;;25.33;17.30;;;9.00;99.90;;;;;;5032694;28;20540;-76
2023/03/30 03:50:03;;;;;;;22.17;17.90;;;9.00;99.90;;;;;;5033569;28;20372;-71
2023/03/30 03:52:30;;;;;;;32.03;18.77;;;9.00;99.90;;;;;;5033467;28;20293;-70
2023/03/30 03:54:55;;;;;;;23.53;17.03;;;9.00;99.90;;;;;;5032632;28;20856;-72
2023/03/30 03:57:22;;;;;;;29.97;19.43;;;9.00;99.90;;;;;;5032517;28;20407;-73
2023/03/30 03:59:48;;;;;;;26.07;17.67;;;9.00;99.90;;;;;;5053055;28;20216;-75
2023/03/30 04:02:14;;;;;;;28.80;17.80;;;8.90;99.90;;;;;;5052463;28;20465;-74
2023/03/30 04:04:40;;;;;;;28.23;17.00;;;9.00;99.90;;;;;;5053563;28;20382;-76
2023/03/30 04:07:06;;;;;;;33.30;18.43;;;9.00;99.90;;;;;;5053833;28;20182;-71
2023/03/30 04:09:31;;;;;;;28.30;17.80;;;9.00;99.90;;;;;;5053581;28;20173;-73
2023/03/30 04:11:57;;;;;;;29.67;17.17;;;9.00;99.90;;;;;;5042525;28;20233;-74
2023/03/30 04:14:23;;;;;;;23.70;16.87;;;9.10;99.90;;;;;;5033649;28;20182;-74
2023/03/30 04:16:50;;;;;;;25.03;17.07;;;9.10;99.90;;;;;;5032195;28;20897;-73
2023/03/30 04:19:16;;;;;;;23.57;17.23;;;9.10;99.90;;;;;;5033315;28;20445;-76
2023/03/30 04:21:45;;;;;;;18.43;15.10;;;9.10;99.90;;;;;;5032660;28;20439;-74
2023/03/30 04:24:12;;;;;;;24.90;16.43;;;9.10;99.90;;;;;;5032931;28;20399;-72
2023/03/30 04:26:40;;;;;;;23.10;17.07;;;9.10;99.90;;;;;;5032919;28;20494;-75
2023/03/30 04:29:06;;;;;;;20.10;16.37;;;9.10;99.90;;;;;;5033447;28;20409;-76
2023/03/30 04:31:34;;;;;;;27.23;17.77;;;9.10;99.90;;;;;;5032386;28;20420;-75
2023/03/30 04:34:01;;;;;;;24.10;16.97;;;9.10;99.90;;;;;;5033337;28;20381;-74
2023/03/30 04:36:28;;;;;;;26.20;18.23;;;9.20;99.90;;;;;;5033396;28;20420;-75
2023/03/30 04:39:00;;;;;;;29.23;16.03;;;9.20;99.90;;;;;;5031950;28;20428;-76
2023/03/30 04:41:34;;;;;;;22.63;15.83;;;9.20;99.90;;;;;;5030581;28;20464;-73
2023/03/30 04:44:05;;;;;;;27.87;16.67;;;9.20;99.90;;;;;;5033125;28;20821;-74
2023/03/30 04:46:31;;;;;;;22.20;15.43;;;9.20;99.90;;;;;;5033202;28;20402;-76
2023/03/30 04:48:57;;;;;;;23.77;16.80;;;9.20;99.90;;;;;;5046458;28;20442;-74
2023/03/30 04:51:23;;;;;;;21.90;15.90;;;9.20;99.90;;;;;;5031922;28;20445;-74
2023/03/30 04:53:49;;;;;;;28.23;16.20;;;9.20;99.90;;;;;;5033116;28;20719;-73
2023/03/30 04:56:15;;;;;;;23.00;15.53;;;9.20;99.90;;;;;;5032941;28;20420;-77
2023/03/30 04:58:41;;;;;;;24.90;16.87;;;9.20;99.90;;;;;;5031904;28;20183;-75
2023/03/30 05:01:07;;;;;;;23.70;15.50;;;9.20;99.90;;;;;;5036794;28;20414;-74
2023/03/30 05:03:33;;;;;;;26.43;15.60;;;9.20;99.90;;;;;;5050044;28;20556;-73
2023/03/30 05:05:59;;;;;;;22.93;16.20;;;9.20;99.90;;;;;;5041563;28;20429;-74
2023/03/30 05:08:25;;;;;;;23.53;15.83;;;9.20;99.90;;;;;;5052790;28;20379;-75
2023/03/30 05:10:51;;;;;;;20.80;16.20;;;9.20;99.90;;;;;;5051866;28;20202;-75
2023/03/30 05:13:17;;;;;;;24.30;16.53;;;9.30;99.90;;;;;;5032649;28;20460;-74
2023/03/30 05:15:43;;;;;;;21.67;15.70;;;9.30;99.90;;;;;;5036969;28;20553;-75
2023/03/30 05:18:08;;;;;;;26.33;15.87;;;9.30;99.90;;;;;;5052714;28;20412;-75
2023/03/30 05:20:34;;;;;;;23.20;15.40;;;9.30;99.90;;;;;;5051790;28;20186;-75
2023/03/30 05:23:00;;;;;;;23.40;15.93;;;9.30;99.90;;;;;;5052433;28;20219;-75
2023/03/30 05:25:26;;;;;;;30.03;15.67;;;9.30;99.90;;;;;;5046929;28;20428;-76
2023/03/30 05:27:52;;;;;;;23.63;16.60;;;9.30;99.90;;;;;;5042700;28;20624;-77
2023/03/30 05:30:18;;;;;;;24.67;15.37;;;9.40;99.90;;;;;;5030777;28;20528;-76
2023/03/30 05:32:43;;;;;;;29.90;18.20;;;9.40;99.90;;;;;;5031233;28;20445;-75
2023/03/30 05:35:10;;;;;;;21.63;15.73;;;9.40;99.90;;;;;;5031178;28;20425;-75
2023/03/30 05:37:37;;;;;;;25.07;15.70;;;9.40;99.90;;;;;;5035753;28;20225;-74
2023/03/30 05:40:08;;;;;;;20.20;14.70;;;9.40;99.90;;;;;;5035625;28;20494;-74
2023/03/30 05:42:35;;;;;;;21.37;15.47;;;9.40;99.90;;;;;;5036200;28;20446;-75
2023/03/30 05:45:01;;;;;;;20.93;15.23;;;9.40;99.90;;;;;;5036416;28;20376;-75
2023/03/30 05:47:27;;;;;;;21.40;15.00;;;9.50;99.90;;;;;;5036339;28;20868;-72
2023/03/30 05:49:53;;;;;;;22.97;16.17;;;9.50;99.90;;;;;;5034643;28;20427;-77
2023/03/30 05:52:20;;;;;;;22.23;15.53;;;9.50;99.90;;;;;;5034624;28;20468;-75
2023/03/30 05:54:46;;;;;;;23.20;16.00;;;9.50;99.90;;;;;;5035999;28;20172;-75
2023/03/30 05:57:12;;;;;;;27.07;17.00;;;9.60;99.90;;;;;;5034913;28;20471;-77
2023/03/30 05:59:38;;;;;;;21.80;15.30;;;9.60;1.00;;;;;;5035068;28;21493;-71
2023/03/30 06:02:05;;;;;;;23.43;14.87;;;9.70;1.00;;;;;;5033291;28;20817;-75
2023/03/30 06:04:31;;;;;;;20.03;15.40;;;9.70;1.00;;;;;;5036036;28;20385;-73
2023/03/30 06:06:57;;;;;;;22.73;16.77;;;9.80;99.90;;;;;;5035919;28;20414;-71
2023/03/30 06:09:24;;;;;;;21.33;15.20;;;9.80;99.90;;;;;;5035530;28;20492;-74
2023/03/30 06:11:50;;;;;;;22.27;16.63;;;9.80;99.90;;;;;;5034985;28;20206;-71
2023/03/30 06:14:16;;;;;;;20.53;15.67;;;9.90;99.90;;;;;;5035338;28;20405;-75
2023/03/30 06:16:42;;;;;;;21.70;13.80;;;9.90;99.90;;;;;;5035785;28;20387;-76
2023/03/30 06:19:07;;;;;;;22.43;16.63;;;9.90;99.90;;;;;;5035801;28;20178;-75
2023/03/30 06:21:33;;;;;;;24.00;15.90;;;9.90;99.90;;;;;;5034778;28;20218;-75
2023/03/30 06:23:59;;;;;;;21.70;14.90;;;10.00;99.90;;;;;;5035582;28;20175;-76
2023/03/30 06:26:24;;;;;;;20.10;13.93;;;10.00;99.90;;;;;;5035527;28;20175;-73
2023/03/30 06:28:50;;;;;;;19.90;13.27;;;10.00;99.90;;;;;;5033902;28;20547;-75
2023/03/30 06:31:16;;;;;;;21.30;13.43;;;10.00;99.90;;;;;;5035449;28;20171;-75
2023/03/30 06:33:42;;;;;;;26.40;13.73;;;10.00;99.90;;;;;;5052102;28;20183;-76
2023/03/30 06:36:13;;;;;;;20.87;13.87;;;10.00;99.90;;;;;;5040077;28;20184;-75
2023/03/30 06:38:39;;;;;;;22.87;12.93;;;10.10;99.90;;;;;;5048918;28;20429;-76
2023/03/30 06:41:07;;;;;;;24.60;16.00;;;10.10;99.90;;;;;;5046043;28;20526;-74
2023/03/30 06:43:33;;;;;;;18.93;13.40;;;10.10;99.90;;;;;;5043569;28;20431;-70
2023/03/30 06:45:59;;;;;;;15.63;12.90;;;10.20;99.90;;;;;;5054575;28;20391;-69
2023/03/30 06:48:25;;;;;;;19.80;13.40;;;10.20;99.90;;;;;;5048304;28;20396;-73
2023/03/30 06:50:52;;;;;;;19.10;14.20;;;10.20;99.90;;;;;;5041165;28;20418;-72
2023/03/30 06:53:18;;;;;;;18.77;12.70;;;10.20;99.90;;;;;;5035914;28;20556;-71
2023/03/30 06:55:49;;;;;;;18.70;13.60;;;10.20;99.90;;;;;;5035114;28;20406;-71
2023/03/30 06:58:15;;;;;;;19.30;13.93;;;10.20;99.90;;;;;;5035062;28;20451;-71
2023/03/30 07:00:41;;;;;;;18.53;13.00;;;10.10;99.90;;;;;;5032945;28;20416;-71
2023/03/30 07:03:07;;;;;;;19.60;13.67;;;10.20;99.90;;;;;;5033194;28;20222;-71
2023/03/30 07:05:33;;;;;;;16.67;13.93;;;10.20;99.90;;;;;;5034573;28;20229;-72
2023/03/30 07:07:59;;;;;;;16.03;13.20;;;10.20;99.90;;;;;;5034888;28;20409;-73
2023/03/30 07:10:25;;;;;;;18.40;13.43;;;10.20;99.90;;;;;;5033934;28;20405;-71
2023/03/30 07:12:51;;;;;;;26.23;15.20;;;10.20;99.90;;;;;;5034889;28;20191;-72
2023/03/30 07:15:17;;;;;;;23.53;14.93;;;10.20;99.90;;;;;;5034738;28;20886;-73
2023/03/30 07:17:42;;;;;;;17.97;12.97;;;10.30;99.90;;;;;;5034157;28;20450;-74
2023/03/30 07:20:09;;;;;;;19.80;13.37;;;10.30;99.90;;;;;;5053375;28;20197;-73
2023/03/30 07:22:36;;;;;;;17.33;14.00;;;10.30;99.90;;;;;;5054327;28;20198;-72
2023/03/30 07:25:02;;;;;;;20.17;13.23;;;10.30;99.90;;;;;;5054435;28;20388;-73
2023/03/30 07:27:28;;;;;;;22.00;14.67;;;10.20;99.90;;;;;;5053108;28;20765;-73
2023/03/30 07:29:54;;;;;;;22.13;13.13;;;10.20;99.90;;;;;;5054161;28;20372;-74
2023/03/30 07:32:19;;;;;;;24.07;12.97;;;10.30;99.90;;;;;;5053586;28;20187;-73
2023/03/30 07:34:46;;;;;;;16.90;12.00;;;10.30;1.00;;;;;;5033048;28;20230;-73
2023/03/30 07:37:13;;;;;;;19.03;13.10;;;10.30;1.00;;;;;;5034162;28;20171;-73
2023/03/30 07:39:39;;;;;;;19.37;13.40;;;10.40;1.00;;;;;;5034126;28;20383;-73
2023/03/30 07:42:05;;;;;;;17.87;12.93;;;10.60;1.00;;;;;;5033239;28;20428;-73
2023/03/30 07:44:31;;;;;;;18.20;12.60;;;10.80;1.00;;;;;;5034154;28;20677;-73
2023/03/30 07:46:57;;;;;;;18.00;12.73;;;11.00;1.00;;;;;;5033530;28;20415;-73
2023/03/30 07:49:23;;;;;;;14.50;12.07;;;11.10;1.00;;;;;;5033076;28;20175;-73
2023/03/30 07:51:49;;;;;;;16.60;11.53;;;11.20;1.00;;;;;;5032804;28;20420;-73
2023/03/30 07:54:15;;;;;;;16.77;12.03;;;11.20;1.00;;;;;;5033657;28;20396;-74
2023/03/30 07:56:41;;;;;;;17.63;11.70;;;11.20;1.00;;;;;;5032913;28;20410;-73
2023/03/30 07:59:09;;;;;;;14.77;12.53;;;11.20;1.00;;;;;;5033149;28;20727;-73
2023/03/30 08:01:35;;;;;;;16.57;10.60;;;11.20;1.00;;;;;;5032044;28;20496;-75
2023/03/30 08:04:01;;;;;;;13.30;11.33;;;11.20;1.00;;;;;;5034086;28;20393;-73
2023/03/30 08:06:27;;;;;;;13.97;10.83;;;11.30;1.00;;;;;;5032513;28;20392;-73
2023/03/30 08:08:54;;;;;;;14.80;11.07;;;11.30;1.00;;;;;;5032475;28;20403;-73
2023/03/30 08:11:20;;;;;;;17.70;12.90;;;11.30;1.00;;;;;;5032510;28;20373;-73
2023/03/30 08:13:45;;;;;;;13.60;11.03;;;11.40;1.00;;;;;;5033582;28;20376;-73
2023/03/30 08:16:11;;;;;;;14.13;10.10;;;11.50;1.00;;;;;;5033214;28;20543;-73
2023/03/30 08:18:40;;;;;;;13.60;11.20;;;11.50;1.00;;;;;;5033609;28;20509;-72
2023/03/30 08:21:06;;;;;;;13.70;9.90;;;11.60;1.00;;;;;;5032622;28;20171;-73
2023/03/30 08:23:32;;;;;;;12.27;9.97;;;11.80;1.00;;;;;;5033493;28;20404;-73
2023/03/30 08:25:59;;;;;;;17.40;10.97;;;11.80;1.00;;;;;;5033365;28;20402;-73
2023/03/30 08:28:25;;;;;;;13.37;10.47;;;11.80;1.00;;;;;;5033175;28;20891;-73
2023/03/30 08:30:51;;;;;;;12.30;9.07;;;11.90;1.00;;;;;;5030785;28;20498;-73
2023/03/30 08:33:18;;;;;;;13.17;9.80;;;12.10;1.00;;;;;;5033285;28;20426;-72
2023/03/30 08:35:45;;;;;;;13.40;11.07;;;12.10;99.90;;;;;;5032620;28;20433;-72
2023/03/30 08:38:16;;;;;;;12.70;8.90;;;12.20;99.90;;;;;;5033209;28;20406;-72
2023/03/30 08:40:47;;;;;;;20.43;10.07;;;12.20;99.90;;;;;;5032540;28;20414;-73
2023/03/30 08:43:32;;;;;;;12.90;9.20;;;12.20;99.90;;;;;;5032827;28;20468;-73
2023/03/30 08:46:00;;;;;;;14.70;9.70;;;12.20;99.90;;;;;;5043945;28;20436;-72
2023/03/30 08:48:29;;;;;;;10.73;9.67;;;12.30;99.90;;;;;;5053010;28;20406;-72
2023/03/30 08:51:00;;;;;;;13.37;9.10;;;12.40;99.90;;;;;;5052060;28;20427;-72
2023/03/30 08:53:32;;;;;;;14.23;9.63;;;12.50;99.90;;;;;;5053028;28;20432;-72
2023/03/30 08:56:08;;;;;;;9.50;8.43;;;12.60;99.90;;;;;;5052855;28;20775;-72
2023/03/30 08:58:49;;;;;;;8.70;7.80;;;12.60;99.90;;;;;;5050091;28;20402;-73
2023/03/30 09:01:33;;;;;;;9.23;7.60;;;12.60;99.90;;;;;;5031926;28;20862;-71
2023/03/30 09:04:42;;;;;;;10.87;8.27;;;12.60;99.90;;;;;;5032729;28;20950;-71
2023/03/30 09:07:17;;;;;;;9.33;8.43;;;12.60;99.90;;;;;;5022003;28;20426;-71
2023/03/30 09:09:45;;;;;;;12.87;7.90;;;12.60;99.90;;;;;;5033048;28;20417;-71
2023/03/30 09:12:15;;;;;;;12.93;7.60;;;12.60;99.90;;;;;;5034988;28;20442;-70
2023/03/30 09:15:27;;;;;;;13.40;7.60;;;12.60;99.90;;;;;;5039747;28;20433;-71
2023/03/30 09:18:09;;;;;;;11.57;8.20;;;12.60;99.90;;;;;;5044603;28;20438;-73
2023/03/30 09:20:38;;;;;;;7.17;6.30;;;12.50;99.90;;;;;;5035892;28;20765;-72
2023/03/30 09:23:10;;;;;;;10.80;7.70;;;12.60;99.90;;;;;;5036346;28;20493;-72
2023/03/30 09:25:54;;;;;;;8.40;6.67;;;12.60;99.90;;;;;;5036795;28;20452;-72
2023/03/30 09:28:37;;;;;;;8.40;6.80;;;12.60;99.90;;;;;;5036642;28;20398;-72
2023/03/30 09:31:23;;;;;;;9.20;7.13;;;12.80;99.90;;;;;;5034796;28;20406;-73
2023/03/30 09:34:05;;;;;;;8.30;6.60;;;12.80;99.90;;;;;;5036548;28;20865;-71
2023/03/30 09:36:54;;;;;;;8.27;6.80;;;12.90;99.90;;;;;;5036422;28;20377;-72
2023/03/30 09:39:23;;;;;;;12.80;7.63;;;13.00;99.90;;;;;;5036376;28;20402;-72
2023/03/30 09:42:04;;;;;;;9.00;6.73;;;13.00;99.90;;;;;;5034123;28;20457;-72
2023/03/30 09:44:36;;;;;;;8.73;7.50;;;13.20;99.90;;;;;;5036325;28;20420;-73
2023/03/30 09:47:26;;;;;;;9.10;6.57;;;13.30;99.90;;;;;;5035855;28;20426;-70
2023/03/30 09:49:59;;;;;;;9.00;6.27;;;13.30;99.90;;;;;;5036054;28;20377;-73
2023/03/30 09:52:31;;;;;;;9.53;7.17;;;13.30;99.90;;;;;;5054331;28;20461;-73
2023/03/30 09:55:16;;;;;;;8.17;6.50;;;13.20;99.90;;;;;;5056116;28;20811;-70
2023/03/30 09:57:42;;;;;;;11.97;7.17;;;13.30;99.90;;;;;;5055787;28;20478;-71
2023/03/30 10:00:31;;;;;;;13.00;6.90;;;13.30;99.90;;;;;;5050700;28;20521;-74
2023/03/30 10:03:02;;;;;;;6.80;6.10;;;13.40;99.90;;;;;;5035883;28;20664;-71
2023/03/30 10:05:30;;;;;;;9.50;6.50;;;13.50;99.90;;;;;;5036158;28;20464;-73
2023/03/30 10:08:04;;;;;;;7.27;6.00;;;13.60;99.90;;;;;;5035004;28;20457;-73
2023/03/30 10:10:34;;;;;;;7.50;5.47;;;13.70;99.90;;;;;;5035022;28;20405;-71
2023/03/30 10:13:08;;;;;;;7.63;6.40;;;13.80;97.70;;;;;;5035599;28;20524;-73
2023/03/30 10:15:38;;;;;;;8.27;6.10;;;13.90;60.30;;;;;;5035291;28;20437;-73
2023/03/30 10:18:26;;;;;;;6.93;5.63;;;13.90;33.40;;;;;;5036023;28;20407;-71
2023/03/30 10:21:21;;;;;;;7.13;5.83;;;13.90;13.90;;;;;;5033582;28;20841;-72
2023/03/30 10:24:00;;;;;;;8.30;6.30;;;14.00;1.00;;;;;;5034962;28;20438;-70
2023/03/30 10:26:29;;;;;;;11.33;6.93;;;14.00;1.00;;;;;;5035661;28;20890;-69
2023/03/30 10:29:06;;;;;;;8.07;6.20;;;14.00;1.00;;;;;;5044666;28;20421;-72
2023/03/30 10:31:35;;;;;;;11.13;5.43;;;14.00;1.00;;;;;;5052925;28;20805;-71
2023/03/30 10:34:03;;;;;;;8.17;6.13;;;14.00;1.00;;;;;;5053878;28;20404;-73
2023/03/30 10:36:38;;;;;;;12.93;6.30;;;14.10;1.00;;;;;;5055394;28;20401;-73
2023/03/30 10:39:22;;;;;;;7.60;5.60;;;14.20;1.00;;;;;;5055237;28;20400;-71
2023/03/30 10:41:49;;;;;;;9.47;6.60;;;14.20;1.00;;;;;;5045030;28;20458;-71
2023/03/30 10:44:31;;;;;;;5.77;5.27;;;14.20;1.00;;;;;;5035262;28;20485;-72
2023/03/30 10:47:37;;;;;;;12.33;5.67;;;14.20;1.00;;;;;;5035151;28;20438;-71
2023/03/30 10:50:18;;;;;;;6.40;4.97;;;14.10;1.00;;;;;;5034731;28;20410;-73
2023/03/30 10:52:56;;;;;;;8.17;5.13;;;14.10;1.00;;;;;;5035183;28;20803;-73
2023/03/30 10:55:44;;;;;;;13.50;5.97;;;14.00;1.00;;;;;;5034600;28;20453;-73
2023/03/30 10:58:29;;;;;;;12.30;5.73;;;14.00;1.00;;;;;;5035141;28;20406;-74
2023/03/30 11:01:25;;;;;;;13.73;5.53;;;14.00;1.00;;;;;;5032805;28;20847;-73
2023/03/30 11:03:59;;;;;;;5.90;5.07;;;14.10;1.00;;;;;;5034446;28;20427;-70
2023/03/30 11:06:37;;;;;;;6.03;5.37;;;14.20;1.00;;;;;;5034711;28;20394;-72
2023/03/30 11:09:05;;;;;;;7.13;6.33;;;14.10;1.00;;;;;;5034748;28;20398;-71
2023/03/30 11:11:47;;;;;;;12.87;6.00;;;14.10;1.00;;;;;;5034062;28;20412;-71
2023/03/30 11:14:24;;;;;;;4.97;4.47;;;14.10;1.00;;;;;;5034854;28;20398;-72
2023/03/30 11:17:07;;;;;;;7.27;5.50;;;14.20;1.00;;;;;;5034834;28;20746;-73
2023/03/30 11:19:44;;;;;;;10.47;5.40;;;14.30;1.00;;;;;;5034618;28;20414;-72
2023/03/30 11:22:25;;;;;;;8.53;4.70;;;14.40;1.00;;;;;;5033660;28;20473;-69
2023/03/30 11:24:53;;;;;;;7.67;5.10;;;14.50;1.00;;;;;;5034066;28;20768;-73
2023/03/30 11:27:31;;;;;;;9.63;5.10;;;14.50;99.90;;;;;;5052435;28;20429;-73
2023/03/30 11:30:13;;;;;;;4.70;3.90;;;14.70;99.90;;;;;;5052854;28;20409;-73
2023/03/30 11:33:18;;;;;;;7.50;4.10;;;14.70;99.90;;;;;;5054245;28;21043;-70
2023/03/30 11:35:52;;;;;;;6.00;3.50;;;14.60;99.90;;;;;;5053136;28;20786;-73
2023/03/30 11:38:35;;;;;;;8.10;5.33;;;14.70;99.90;;;;;;5050119;28;20455;-72
2023/03/30 11:41:10;;;;;;;8.33;4.00;;;14.80;99.90;;;;;;5032349;28;20475;-70
2023/03/30 11:43:36;;;;;;;5.50;3.57;;;14.50;99.90;;;;;;5032861;28;20426;-70
2023/03/30 11:46:22;;;;;;;5.70;3.37;;;14.20;99.90;;;;;;5033255;28;20461;-72
2023/03/30 11:49:24;;;;;;;3.60;3.30;;;14.10;99.90;;;;;;5052842;28;20179;-71
2023/03/30 11:52:04;;;;;;;6.47;3.13;;;14.30;99.90;;;;;;5051573;28;20864;-70
2023/03/30 11:54:50;;;;;;;9.00;3.50;;;14.40;99.90;;;;;;5048237;28;20457;-70
2023/03/30 11:57:25;;;;;;;5.00;3.50;;;14.50;99.90;;;;;;5040129;28;21020;-71
2023/03/30 12:00:15;;;;;;;9.37;4.47;;;14.40;99.90;;;;;;5032657;28;20413;-70
2023/03/30 12:03:12;;;;;;;6.10;3.50;;;14.30;99.90;;;;;;5032239;28;20461;-72
2023/03/30 12:05:43;;;;;;;6.80;3.40;;;14.20;99.90;;;;;;5033626;28;20403;-70
2023/03/30 12:08:11;;;;;;;15.03;4.50;;;13.90;99.90;;;;;;5032771;28;20476;-73
2023/03/30 12:10:43;;;;;;;7.87;3.90;;;13.80;99.90;;;;;;5033153;28;20437;-70
2023/03/30 12:13:14;;;;;;;8.07;4.57;;;13.80;99.90;;;;;;5033509;28;20830;-74
2023/03/30 12:16:00;;;;;;;12.17;4.40;;;13.70;99.90;;;;;;5032565;28;20929;-73
2023/03/30 12:18:47;;;;;;;5.90;4.00;;;13.50;99.90;;;;;;5033606;28;20485;-70
2023/03/30 12:21:37;;;;;;;8.93;4.10;;;13.40;99.90;;;;;;5032169;28;20475;-70
2023/03/30 12:24:25;;;;;;;10.00;4.70;;;13.40;99.90;;;;;;5033524;28;20438;-70
2023/03/30 12:26:51;;;;;;;9.23;5.13;;;13.30;99.90;;;;;;5052395;28;20423;-71
2023/03/30 12:29:18;;;;;;;6.97;5.40;;;13.10;1.00;;;;;;5052007;28;20839;-71
2023/03/30 12:31:57;;;;;;;8.03;5.27;;;12.80;1.00;;;;;;5052308;28;20433;-71
2023/03/30 12:34:26;;;;;;;12.10;5.17;;;12.70;1.00;;;;;;5052005;28;20424;-72
2023/03/30 12:36:59;;;;;;;7.57;4.90;;;12.60;1.00;;;;;;5053184;28;20471;-72
2023/03/30 12:39:25;;;;;;;11.00;5.60;;;12.60;1.00;;;;;;5033984;28;20509;-71
2023/03/30 12:42:24;;;;;;;15.47;4.40;;;12.80;1.00;;;;;;5051973;28;20551;-71
2023/03/30 12:45:23;;;;;;;17.50;5.83;;;12.80;1.00;;;;;;5052829;28;20449;-70
2023/03/30 12:48:31;;;;;;;14.50;5.50;;;12.90;1.00;;;;;;5049251;28;20829;-72
2023/03/30 12:51:08;;;;;;;15.43;4.07;;;13.40;1.00;;;;;;5034872;28;20430;-70
2023/03/30 12:53:37;;;;;;;13.77;4.57;;;13.50;99.90;;;;;;5036183;28;20436;-72
2023/03/30 12:56:07;;;;;;;7.30;4.20;;;13.40;99.90;;;;;;5047393;28;20429;-70
2023/03/30 12:59:20;;;;;;;14.13;5.10;;;13.10;99.90;;;;;;5048836;28;20401;-71
2023/03/30 13:01:52;;;;;;;14.10;4.30;;;12.90;99.90;;;;;;5030732;28;20925;-72
2023/03/30 13:04:24;;;;;;;8.80;4.10;;;12.80;99.90;;;;;;5031914;28;20919;-73
2023/03/30 13:06:56;;;;;;;12.17;4.27;;;13.00;99.90;;;;;;5032400;28;20381;-70
2023/03/30 13:09:26;;;;;;;13.77;4.93;;;13.30;99.90;;;;;;5031968;28;20426;-70